Terminal Aerodrome Forecast
Issued by NWS Buffalo, NY

Home | Current Version | Previous Version | Text Only | Print | Product List | Glossary On
Versions: 1 2 3 4 5 6 7 8 9 10 11 12 13 14 15 16 17 18 19 20 21 22 23 24 25 26 27 28 29
453
FTUS41 KBUF 120310 AAA
TAFBUF
TAF AMD
KBUF 120310Z 1203/1224 28009KT P6SM SCT050
     FM120800 25008KT 4SM -SN BKN025 OVC050
     FM121000 24007KT 2SM -SN OVC012
     FM121300 24007KT 1 1/2SM -SN OVC007
     FM121500 24010G21KT 1/2SM SN OVC007
     FM122300 26017KT 1 1/2SM -SN BLSN OVC025=

USA.gov is the U.S. government's official web portal to all federal, state and local government web resources and services.